Time;durP1;ratioP1;P1;durP2;ratioP2;P2;SDS_P1;SDS_P2;PMS_P1;PMS_P2;Temp;Humidity;BMP_temperature;BMP_pressure;BME280_temperature;BME280_humidity;BME280_pressure;Samples;Min_cycle;Max_cycle;Signal;HPM_P1;HPM_P2
2023/03/15 00:00:06;;;;;;;;;;;9.00;99.90;9.50;99626.00;;;;349962;27;87767;-91
2023/03/15 00:00:18;;;;;;;;;;;9.00;99.90;9.40;99622.00;;;;352788;27;82391;-93
2023/03/15 00:00:30;;;;;;;;;;;9.00;99.90;9.30;99627.00;;;;348174;27;91503;-93
2023/03/15 00:00:42;;;;;;;;;;;9.00;99.90;9.40;99625.00;;;;347128;27;83520;-93
2023/03/15 00:00:54;;;;;;;;;;;9.00;99.90;9.40;99621.00;;;;348219;27;90329;-92
2023/03/15 00:01:07;;;;;;;;;;;9.00;99.90;9.50;99636.00;;;;350377;27;82490;-93
2023/03/15 00:01:20;;;;;;;;;;;9.00;99.90;9.40;99624.00;;;;347106;28;89293;-92
2023/03/15 00:01:32;;;;;;;;;;;9.00;99.90;9.30;99630.00;;;;349991;27;83354;-92
2023/03/15 00:01:45;;;;;;;;;;;9.00;99.90;9.30;99622.00;;;;349878;27;89429;-93
2023/03/15 00:01:57;;;;;;;;;;;9.00;99.90;9.40;99629.00;;;;350106;27;83528;-93
2023/03/15 00:02:09;;;;;;;;;;;9.00;99.90;9.40;99624.00;;;;349792;27;89368;-93
2023/03/15 00:02:21;;;;;;;;;;;9.00;99.90;9.40;99628.00;;;;349084;27;83337;-92
2023/03/15 00:02:33;;;;;;;;;;;9.00;99.90;9.40;99627.00;;;;347080;28;89879;-92
2023/03/15 00:02:45;;;;;;;;;;;9.00;99.90;9.50;99621.00;;;;348610;27;83530;-93
2023/03/15 00:02:57;;;;;;;;;;;9.00;99.90;9.50;99626.00;;;;348229;27;89101;-93
2023/03/15 00:03:09;;;;;;;;;;;9.00;99.90;9.50;99630.00;;;;350071;27;83538;-93
2023/03/15 00:03:23;;;;;;;;;;;9.00;99.90;9.40;99638.00;;;;345519;28;89281;-93
2023/03/15 00:03:38;;;;;;;;;;;9.00;99.90;9.30;99633.00;;;;347221;28;83937;-92
2023/03/15 00:03:50;;;;;;;;;;;9.00;99.90;9.20;99630.00;;;;347111;28;87687;-92
2023/03/15 00:04:04;;;;;;;;;;;9.00;99.90;9.30;99637.00;;;;350389;27;83143;-92
2023/03/15 00:04:16;;;;;;;;;;;9.00;99.90;9.30;99628.00;;;;346845;27;90143;-92
2023/03/15 00:04:28;;;;;;;;;;;9.00;99.90;9.30;99633.00;;;;345893;28;83313;-93
2023/03/15 00:04:40;;;;;;;;;;;9.00;99.90;9.40;99631.00;;;;348554;27;88867;-92
2023/03/15 00:04:53;;;;;;;;;;;9.00;99.90;9.30;99631.00;;;;345994;28;82617;-93
2023/03/15 00:05:05;;;;;;;;;;;9.00;99.90;9.30;99627.00;;;;349925;27;88063;-93
2023/03/15 00:05:17;;;;;;;;;;;8.90;99.90;9.30;99627.00;;;;350276;27;83361;-93
2023/03/15 00:05:30;;;;;;;;;;;8.90;99.90;9.30;99636.00;;;;349800;27;92329;-93
2023/03/15 00:05:43;;;;;;;;;;;8.90;99.90;9.30;99621.00;;;;348792;27;83348;-92
2023/03/15 00:05:55;;;;;;;;;;;8.90;99.90;9.40;99638.00;;;;345707;28;90221;-93
2023/03/15 00:06:07;;;;;;;;;;;8.90;99.90;9.30;99627.00;;;;347473;27;83413;-92
2023/03/15 00:06:18;;;;;;;;;;;8.90;99.90;9.30;99634.00;;;;348287;27;90492;-93
2023/03/15 00:06:32;;;;;;;;;;;8.90;99.90;9.40;99629.00;;;;348606;27;83362;-92
2023/03/15 00:06:44;;;;;;;;;;;9.00;99.90;9.40;99626.00;;;;347052;28;89109;-91
2023/03/15 00:06:56;;;;;;;;;;;8.90;99.90;9.40;99637.00;;;;350185;27;83542;-93
2023/03/15 00:07:07;;;;;;;;;;;8.90;99.90;9.30;99628.00;;;;349915;27;87137;-93
2023/03/15 00:07:24;;;;;;;;;;;9.00;99.90;9.30;99637.00;;;;347367;27;83568;-93
2023/03/15 00:07:36;;;;;;;;;;;8.90;99.90;9.30;99632.00;;;;349606;27;91214;-92
2023/03/15 00:07:48;;;;;;;;;;;8.90;99.90;9.30;99633.00;;;;350367;27;82464;-92
2023/03/15 00:08:00;;;;;;;;;;;8.90;99.90;9.20;99627.00;;;;346735;28;87091;-93
2023/03/15 00:08:15;;;;;;;;;;;8.90;99.90;9.20;99626.00;;;;348821;27;83369;-92
2023/03/15 00:08:26;;;;;;;;;;;8.90;99.90;9.30;99627.00;;;;349678;27;87533;-93
2023/03/15 00:08:38;;;;;;;;;;;8.90;99.90;9.30;99628.00;;;;348741;27;84310;-92
2023/03/15 00:08:50;;;;;;;;;;;8.90;99.90;9.30;99621.00;;;;345614;28;89535;-92
2023/03/15 00:09:02;;;;;;;;;;;8.90;99.90;9.20;99626.00;;;;350216;27;83508;-93
2023/03/15 00:09:14;;;;;;;;;;;8.90;99.90;9.30;99629.00;;;;348392;27;90192;-93
2023/03/15 00:09:26;;;;;;;;;;;8.90;99.90;9.30;99621.00;;;;347191;27;83389;-92
2023/03/15 00:09:38;;;;;;;;;;;8.90;99.90;9.20;99629.00;;;;348118;27;90482;-93
2023/03/15 00:09:50;;;;;;;;;;;8.90;99.90;9.20;99626.00;;;;348617;27;83446;-93
2023/03/15 00:10:03;;;;;;;;;;;8.90;99.90;9.20;99628.00;;;;348266;27;89832;-93
2023/03/15 00:10:15;;;;;;;;;;;8.90;99.90;9.30;99628.00;;;;348665;27;83435;-93
2023/03/15 00:10:27;;;;;;;;;;;8.90;99.90;9.30;99622.00;;;;348397;27;88057;-93
2023/03/15 00:10:42;;;;;;;;;;;8.90;99.90;9.20;99631.00;;;;347016;28;83648;-92
2023/03/15 00:10:54;;;;;;;;;;;8.90;99.90;9.30;99629.00;;;;347843;27;88453;-92
2023/03/15 00:11:06;;;;;;;;;;;8.80;99.90;9.30;99628.00;;;;347633;28;82160;-92
2023/03/15 00:11:18;;;;;;;;;;;8.80;99.90;9.30;99625.00;;;;349556;27;90737;-93
2023/03/15 00:11:30;;;;;;;;;;;8.90;99.90;9.30;99627.00;;;;348830;27;82591;-93
2023/03/15 00:11:41;;;;;;;;;;;8.90;99.90;9.20;99626.00;;;;346908;28;90322;-93
2023/03/15 00:11:53;;;;;;;;;;;8.90;99.90;9.10;99633.00;;;;347692;28;83335;-93
2023/03/15 00:12:05;;;;;;;;;;;8.80;99.90;9.20;99625.00;;;;348622;27;89486;-92
2023/03/15 00:12:17;;;;;;;;;;;8.80;99.90;9.10;99634.00;;;;351732;27;83531;-91
2023/03/15 00:12:29;;;;;;;;;;;8.80;99.90;9.10;99632.00;;;;349817;27;91594;-92
2023/03/15 00:12:41;;;;;;;;;;;8.80;99.90;9.00;99636.00;;;;351833;27;83261;-93
2023/03/15 00:12:53;;;;;;;;;;;8.80;99.90;9.10;99638.00;;;;350001;27;90630;-92
2023/03/15 00:13:05;;;;;;;;;;;8.70;99.90;9.10;99639.00;;;;349107;27;82479;-91
2023/03/15 00:13:17;;;;;;;;;;;8.70;99.90;9.10;99637.00;;;;347482;28;90220;-92
2023/03/15 00:13:29;;;;;;;;;;;8.80;99.90;9.10;99643.00;;;;349152;27;82597;-92
2023/03/15 00:13:41;;;;;;;;;;;8.70;99.90;9.00;99645.00;;;;347200;28;92795;-93
2023/03/15 00:13:53;;;;;;;;;;;8.70;99.90;9.00;99644.00;;;;347615;28;83167;-92
2023/03/15 00:14:05;;;;;;;;;;;8.70;99.90;9.00;99637.00;;;;350039;27;87965;-93
2023/03/15 00:14:17;;;;;;;;;;;8.70;99.90;9.10;99649.00;;;;348967;27;83491;-92
2023/03/15 00:14:30;;;;;;;;;;;8.70;99.90;9.10;99641.00;;;;350230;27;90735;-92
2023/03/15 00:14:42;;;;;;;;;;;8.70;99.90;9.10;99640.00;;;;346786;28;82463;-93
2023/03/15 00:14:54;;;;;;;;;;;8.70;99.90;9.20;99640.00;;;;347530;28;86669;-92
2023/03/15 00:15:06;;;;;;;;;;;8.70;99.90;9.20;99636.00;;;;349648;27;82364;-92
2023/03/15 00:15:18;;;;;;;;;;;8.70;99.90;9.20;99644.00;;;;349145;27;90643;-92
2023/03/15 00:15:30;;;;;;;;;;;8.70;99.90;9.10;99639.00;;;;347878;28;82458;-92
2023/03/15 00:15:49;;;;;;;;;;;8.70;99.90;9.10;99647.00;;;;347608;28;90689;-93
2023/03/15 00:16:02;;;;;;;;;;;8.70;99.90;9.20;99640.00;;;;347692;28;82588;-92
2023/03/15 00:16:16;;;;;;;;;;;8.70;99.90;9.20;99645.00;;;;350097;27;90706;-92
2023/03/15 00:16:28;;;;;;;;;;;8.70;99.90;9.20;99645.00;;;;349023;27;82669;-92
2023/03/15 00:16:41;;;;;;;;;;;8.70;99.90;9.20;99640.00;;;;348602;27;87956;-92
2023/03/15 00:16:53;;;;;;;;;;;8.70;99.90;9.20;99644.00;;;;347551;28;82365;-92
2023/03/15 00:17:05;;;;;;;;;;;8.70;99.90;9.20;99646.00;;;;350037;27;90003;-92
2023/03/15 00:17:17;;;;;;;;;;;8.70;99.90;9.20;99640.00;;;;351827;27;83291;-92
2023/03/15 00:17:33;;;;;;;;;;;8.70;99.90;9.20;99643.00;;;;349908;27;87092;-92
2023/03/15 00:17:45;;;;;;;;;;;8.70;99.90;9.20;99653.00;;;;351743;27;82579;-93
2023/03/15 00:17:57;;;;;;;;;;;8.70;99.90;9.20;99654.00;;;;348419;27;90195;-92
2023/03/15 00:18:09;;;;;;;;;;;8.70;99.90;9.20;99649.00;;;;347776;28;83369;-93
2023/03/15 00:18:21;;;;;;;;;;;8.70;99.90;9.30;99643.00;;;;350114;27;90789;-92
2023/03/15 00:18:33;;;;;;;;;;;8.70;99.90;9.30;99648.00;;;;349305;27;82377;-92
2023/03/15 00:18:45;;;;;;;;;;;8.70;99.90;9.30;99647.00;;;;347430;28;90946;-92
2023/03/15 00:18:58;;;;;;;;;;;8.70;99.90;9.30;99643.00;;;;347384;28;82356;-93
2023/03/15 00:19:09;;;;;;;;;;;8.70;99.90;9.30;99642.00;;;;348723;27;90659;-92
2023/03/15 00:19:21;;;;;;;;;;;8.70;99.90;9.30;99642.00;;;;347985;28;82496;-93
2023/03/15 00:19:34;;;;;;;;;;;8.80;99.90;9.30;99641.00;;;;347414;28;90286;-93
2023/03/15 00:19:46;;;;;;;;;;;8.80;99.90;9.20;99650.00;;;;347782;28;83322;-93
2023/03/15 00:19:58;;;;;;;;;;;8.80;99.90;9.30;99650.00;;;;347381;28;92546;-93
2023/03/15 00:20:13;;;;;;;;;;;8.80;99.90;9.30;99647.00;;;;347846;28;82495;-93
2023/03/15 00:20:25;;;;;;;;;;;8.80;99.90;9.30;99641.00;;;;351739;27;87946;-93
2023/03/15 00:20:37;;;;;;;;;;;8.80;99.90;9.30;99636.00;;;;350395;27;83232;-92
2023/03/15 00:20:49;;;;;;;;;;;8.80;99.90;9.30;99641.00;;;;348593;27;89407;-94
2023/03/15 00:21:01;;;;;;;;;;;8.80;99.90;9.30;99647.00;;;;348174;28;82419;-94
2023/03/15 00:21:13;;;;;;;;;;;8.80;99.90;9.30;99649.00;;;;347969;28;90694;-93
2023/03/15 00:21:27;;;;;;;;;;;8.80;99.90;9.30;99654.00;;;;347983;28;83307;-93
2023/03/15 00:21:42;;;;;;;;;;;8.90;99.90;9.40;99647.00;;;;347501;28;90254;-93
2023/03/15 00:21:53;;;;;;;;;;;8.90;99.90;9.40;99645.00;;;;349317;27;83505;-93
2023/03/15 00:22:06;;;;;;;;;;;8.90;99.90;9.40;99650.00;;;;348963;27;91283;-93
2023/03/15 00:22:18;;;;;;;;;;;8.90;99.90;9.30;99646.00;;;;350702;27;82514;-94
2023/03/15 00:22:29;;;;;;;;;;;8.90;99.90;9.30;99647.00;;;;349086;27;88289;-92
2023/03/15 00:22:41;;;;;;;;;;;8.90;99.90;9.30;99642.00;;;;348835;27;82570;-93
2023/03/15 00:22:53;;;;;;;;;;;8.90;99.90;9.20;99638.00;;;;348712;27;90864;-93
2023/03/15 00:23:05;;;;;;;;;;;8.90;99.90;9.20;99640.00;;;;350759;27;82366;-92
2023/03/15 00:23:17;;;;;;;;;;;8.90;99.90;9.20;99641.00;;;;350558;27;88085;-93
2023/03/15 00:23:30;;;;;;;;;;;8.90;99.90;9.30;99640.00;;;;352244;27;82454;-94
2023/03/15 00:23:42;;;;;;;;;;;8.90;99.90;9.30;99634.00;;;;348877;27;91100;-93
2023/03/15 00:23:54;;;;;;;;;;;8.90;99.90;9.20;99642.00;;;;349086;27;84090;-93
2023/03/15 00:24:06;;;;;;;;;;;8.90;99.90;9.20;99642.00;;;;348517;27;91558;-93
2023/03/15 00:24:18;;;;;;;;;;;8.90;99.90;9.20;99639.00;;;;347901;28;82548;-93
2023/03/15 00:24:30;;;;;;;;;;;8.90;99.90;9.20;99642.00;;;;350148;27;89333;-92
2023/03/15 00:24:42;;;;;;;;;;;8.80;99.90;9.00;99653.00;;;;349083;27;82513;-92
2023/03/15 00:24:54;;;;;;;;;;;8.80;99.90;9.10;99646.00;;;;347357;28;91632;-93
2023/03/15 00:25:06;;;;;;;;;;;8.80;99.90;9.20;99644.00;;;;349235;27;82448;-93
2023/03/15 00:25:18;;;;;;;;;;;8.80;99.90;9.10;99643.00;;;;348462;27;89012;-94
2023/03/15 00:25:30;;;;;;;;;;;8.80;99.90;9.20;99645.00;;;;350290;27;82569;-93
2023/03/15 00:25:45;;;;;;;;;;;8.80;99.90;9.20;99639.00;;;;348175;27;89114;-93
2023/03/15 00:25:57;;;;;;;;;;;8.80;99.90;9.20;99631.00;;;;350333;27;83622;-93
2023/03/15 00:26:09;;;;;;;;;;;8.80;99.90;9.20;99640.00;;;;348345;27;89964;-93
2023/03/15 00:26:21;;;;;;;;;;;8.80;99.90;9.20;99637.00;;;;349160;27;82477;-93
2023/03/15 00:26:33;;;;;;;;;;;8.80;99.90;9.10;99630.00;;;;349221;27;92461;-93
2023/03/15 00:26:45;;;;;;;;;;;8.80;99.90;9.10;99638.00;;;;350981;27;83262;-92
2023/03/15 00:26:57;;;;;;;;;;;8.80;99.90;9.20;99635.00;;;;348977;27;90567;-93
2023/03/15 00:27:09;;;;;;;;;;;8.80;99.90;9.20;99633.00;;;;349567;27;82354;-93
2023/03/15 00:27:21;;;;;;;;;;;8.70;99.90;9.20;99640.00;;;;348852;27;91744;-91
2023/03/15 00:27:33;;;;;;;;;;;8.70;99.90;9.20;99645.00;;;;349144;27;83497;-93
2023/03/15 00:27:45;;;;;;;;;;;8.70;99.90;9.20;99639.00;;;;347290;28;89811;-93
2023/03/15 00:27:56;;;;;;;;;;;8.70;99.90;9.20;99647.00;;;;350340;27;83385;-92
2023/03/15 00:28:08;;;;;;;;;;;8.80;99.90;9.10;99631.00;;;;346944;28;91725;-93
2023/03/15 00:28:20;;;;;;;;;;;8.70;99.90;9.10;99645.00;;;;346127;28;83272;-93
2023/03/15 00:28:32;;;;;;;;;;;8.70;99.90;9.10;99635.00;;;;347083;28;90508;-92
2023/03/15 00:28:44;;;;;;;;;;;8.70;99.90;9.10;99632.00;;;;348933;27;82345;-92
2023/03/15 00:28:55;;;;;;;;;;;8.70;99.90;9.00;99639.00;;;;348519;27;92041;-93
2023/03/15 00:29:07;;;;;;;;;;;8.70;99.90;9.10;99644.00;;;;346072;28;83462;-92
2023/03/15 00:29:19;;;;;;;;;;;8.70;99.90;9.10;99646.00;;;;345816;28;90469;-92
2023/03/15 00:29:31;;;;;;;;;;;8.70;99.90;9.10;99635.00;;;;347952;28;83347;-93
2023/03/15 00:29:43;;;;;;;;;;;8.70;99.90;9.10;99634.00;;;;347474;28;86282;-93
2023/03/15 00:29:55;;;;;;;;;;;8.70;99.90;9.10;99640.00;;;;349015;27;82613;-92
2023/03/15 00:30:08;;;;;;;;;;;8.70;99.90;9.10;99633.00;;;;347177;28;91774;-93
2023/03/15 00:30:19;;;;;;;;;;;8.70;99.90;9.10;99639.00;;;;349151;27;83280;-92
2023/03/15 00:30:31;;;;;;;;;;;8.70;99.90;9.00;99643.00;;;;347120;28;90465;-93
2023/03/15 00:30:43;;;;;;;;;;;8.70;99.90;8.90;99650.00;;;;348074;28;83302;-92
2023/03/15 00:31:06;;;;;;;;;;;8.70;99.90;9.00;99640.00;;;;346664;28;88610;-92
2023/03/15 00:31:22;;;;;;;;;;;8.70;99.90;9.00;99648.00;;;;346172;28;82530;-93
2023/03/15 00:31:34;;;;;;;;;;;8.70;99.90;9.00;99644.00;;;;347207;28;88778;-93
2023/03/15 00:31:47;;;;;;;;;;;8.70;99.90;9.00;99641.00;;;;349057;27;83539;-93
2023/03/15 00:31:59;;;;;;;;;;;8.70;99.90;8.90;99647.00;;;;348417;27;90316;-92
2023/03/15 00:32:10;;;;;;;;;;;8.60;99.90;9.00;99644.00;;;;348937;27;83200;-94
2023/03/15 00:32:22;;;;;;;;;;;8.70;99.90;9.00;99644.00;;;;348460;27;92311;-93
2023/03/15 00:32:34;;;;;;;;;;;8.70;99.90;9.00;99650.00;;;;346538;28;82419;-92
2023/03/15 00:32:46;;;;;;;;;;;8.60;99.90;9.10;99640.00;;;;346131;28;88058;-94
2023/03/15 00:32:58;;;;;;;;;;;8.70;99.90;9.10;99649.00;;;;349157;27;82562;-92
2023/03/15 00:33:12;;;;;;;;;;;8.60;99.90;9.00;99643.00;;;;349963;27;91568;-92
2023/03/15 00:33:24;;;;;;;;;;;8.60;99.90;9.00;99647.00;;;;347403;28;83477;-92
2023/03/15 00:33:36;;;;;;;;;;;8.60;99.90;9.00;99644.00;;;;349980;27;88220;-93
2023/03/15 00:33:48;;;;;;;;;;;8.60;99.90;9.00;99643.00;;;;347695;28;82437;-93
2023/03/15 00:34:00;;;;;;;;;;;8.60;99.90;9.10;99646.00;;;;347092;28;90467;-92
2023/03/15 00:34:12;;;;;;;;;;;8.60;99.90;9.10;99647.00;;;;347535;28;82543;-93
2023/03/15 00:34:24;;;;;;;;;;;8.60;99.90;9.10;99649.00;;;;346782;28;88136;-93
2023/03/15 00:34:36;;;;;;;;;;;8.60;99.90;9.00;99643.00;;;;347654;28;83476;-93
2023/03/15 00:34:48;;;;;;;;;;;8.60;99.90;9.10;99650.00;;;;347671;27;88075;-93
2023/03/15 00:35:00;;;;;;;;;;;8.60;99.90;9.10;99638.00;;;;349061;27;83385;-93
2023/03/15 00:35:12;;;;;;;;;;;8.70;99.90;9.10;99647.00;;;;347779;28;86631;-92
2023/03/15 00:35:24;;;;;;;;;;;8.70;99.90;9.00;99650.00;;;;349053;27;83518;-93
2023/03/15 00:35:39;;;;;;;;;;;8.60;99.90;8.90;99647.00;;;;348641;27;89450;-93
2023/03/15 00:35:52;;;;;;;;;;;8.60;99.90;8.80;99633.00;;;;349062;27;82648;-93
2023/03/15 00:36:05;;;;;;;;;;;8.60;99.90;8.90;99639.00;;;;347332;28;90213;-93
2023/03/15 00:36:17;;;;;;;;;;;8.60;99.90;8.90;99641.00;;;;347917;28;83532;-93
2023/03/15 00:36:29;;;;;;;;;;;8.60;99.90;8.90;99643.00;;;;347370;28;89348;-93
2023/03/15 00:36:42;;;;;;;;;;;8.60;99.90;8.90;99641.00;;;;347806;28;82533;-93
2023/03/15 00:36:56;;;;;;;;;;;8.60;99.90;9.00;99647.00;;;;347116;27;89059;-93
2023/03/15 00:37:08;;;;;;;;;;;8.60;99.90;8.90;99646.00;;;;349229;27;82421;-93
2023/03/15 00:37:20;;;;;;;;;;;8.60;99.90;9.00;99637.00;;;;348495;27;90202;-92
2023/03/15 00:37:32;;;;;;;;;;;8.60;99.90;8.90;99637.00;;;;348926;27;82879;-93
2023/03/15 00:37:44;;;;;;;;;;;8.60;99.90;8.80;99639.00;;;;348499;27;90684;-93
2023/03/15 00:37:56;;;;;;;;;;;8.60;99.90;8.80;99638.00;;;;349385;27;82334;-93
2023/03/15 00:38:07;;;;;;;;;;;8.60;99.90;8.90;99636.00;;;;346979;28;90229;-93
2023/03/15 00:38:20;;;;;;;;;;;8.50;99.90;8.90;99645.00;;;;347697;28;83587;-93
2023/03/15 00:38:33;;;;;;;;;;;8.50;99.90;8.90;99637.00;;;;347143;28;89335;-92
2023/03/15 00:38:45;;;;;;;;;;;8.50;99.90;8.90;99641.00;;;;349636;27;82402;-92
2023/03/15 00:38:57;;;;;;;;;;;8.50;99.90;8.90;99639.00;;;;347719;28;89235;-92
2023/03/15 00:39:08;;;;;;;;;;;8.50;99.90;8.90;99642.00;;;;348315;28;82333;-93
2023/03/15 00:39:21;;;;;;;;;;;8.50;99.90;8.90;99643.00;;;;348744;27;91919;-92
2023/03/15 00:39:36;;;;;;;;;;;8.50;99.90;8.90;99641.00;;;;347616;28;82534;-93
2023/03/15 00:39:48;;;;;;;;;;;8.50;99.90;8.80;99637.00;;;;350276;27;90080;-92
2023/03/15 00:40:00;;;;;;;;;;;8.50;99.90;8.80;99631.00;;;;349261;27;83863;-92
2023/03/15 00:40:12;;;;;;;;;;;8.50;99.90;8.90;99635.00;;;;347149;28;90404;-92
2023/03/15 00:40:24;;;;;;;;;;;8.50;99.90;8.90;99631.00;;;;349002;27;83287;-93
2023/03/15 00:40:36;;;;;;;;;;;8.50;99.90;8.90;99637.00;;;;351390;27;91588;-92
2023/03/15 00:40:48;;;;;;;;;;;8.50;99.90;8.90;99638.00;;;;349057;27;82559;-92
2023/03/15 00:41:07;;;;;;;;;;;8.50;99.90;8.90;99642.00;;;;350232;27;90142;-93
2023/03/15 00:41:20;;;;;;;;;;;8.50;99.90;8.90;99633.00;;;;350245;27;83476;-93
2023/03/15 00:41:31;;;;;;;;;;;8.50;99.90;8.90;99650.00;;;;348650;27;91530;-93
2023/03/15 00:41:44;;;;;;;;;;;8.50;99.90;8.90;99645.00;;;;347694;28;83452;-93
2023/03/15 00:41:56;;;;;;;;;;;8.50;99.90;8.90;99644.00;;;;347260;28;92139;-93
2023/03/15 00:42:08;;;;;;;;;;;8.50;99.90;8.90;99639.00;;;;346219;28;83413;-92
2023/03/15 00:42:20;;;;;;;;;;;8.50;99.90;9.00;99636.00;;;;347250;28;90291;-92
2023/03/15 00:42:32;;;;;;;;;;;8.50;99.90;8.80;99636.00;;;;349082;27;82652;-92
2023/03/15 00:42:49;;;;;;;;;;;8.50;99.90;8.90;99638.00;;;;347288;28;92897;-93
2023/03/15 00:43:01;;;;;;;;;;;8.50;99.90;9.00;99638.00;;;;346449;28;82470;-93
2023/03/15 00:43:16;;;;;;;;;;;8.50;99.90;9.00;99629.00;;;;348606;27;90353;-92
2023/03/15 00:43:28;;;;;;;;;;;8.50;99.90;9.00;99639.00;;;;349220;27;82397;-93
2023/03/15 00:43:40;;;;;;;;;;;8.50;99.90;8.90;99638.00;;;;348577;27;90469;-92
2023/03/15 00:43:52;;;;;;;;;;;8.50;99.90;8.90;99643.00;;;;347778;28;83390;-92
2023/03/15 00:44:04;;;;;;;;;;;8.50;99.90;8.80;99635.00;;;;351692;27;88787;-92
2023/03/15 00:44:17;;;;;;;;;;;8.50;99.90;8.70;99638.00;;;;346272;28;83523;-92
2023/03/15 00:44:29;;;;;;;;;;;8.50;99.90;8.70;99641.00;;;;347379;28;90651;-93
2023/03/15 00:44:42;;;;;;;;;;;8.40;99.90;8.80;99640.00;;;;347766;28;83506;-93
2023/03/15 00:44:54;;;;;;;;;;;8.40;99.90;8.80;99642.00;;;;346911;28;91541;-93
2023/03/15 00:45:07;;;;;;;;;;;8.40;99.90;8.80;99638.00;;;;349449;27;83276;-92
2023/03/15 00:45:19;;;;;;;;;;;8.50;99.90;8.80;99640.00;;;;350112;27;88022;-93
2023/03/15 00:45:31;;;;;;;;;;;8.50;99.90;8.90;99636.00;;;;349051;27;82533;-93
2023/03/15 00:45:44;;;;;;;;;;;8.50;99.90;8.90;99651.00;;;;350160;27;90670;-93
2023/03/15 00:45:57;;;;;;;;;;;8.40;99.90;8.80;99640.00;;;;347735;28;83155;-93
2023/03/15 00:46:09;;;;;;;;;;;8.40;99.90;8.80;99641.00;;;;349977;27;91635;-92
2023/03/15 00:46:21;;;;;;;;;;;8.50;99.90;8.90;99646.00;;;;350471;27;82487;-92
2023/03/15 00:46:33;;;;;;;;;;;8.40;99.90;8.80;99644.00;;;;348663;27;90920;-92
2023/03/15 00:46:45;;;;;;;;;;;8.50;99.90;8.90;99644.00;;;;351850;27;82508;-93
2023/03/15 00:46:57;;;;;;;;;;;8.50;99.90;8.90;99635.00;;;;348510;27;90947;-93
2023/03/15 00:47:10;;;;;;;;;;;8.40;99.90;8.90;99636.00;;;;347706;28;82563;-93
2023/03/15 00:47:21;;;;;;;;;;;8.50;99.90;8.90;99641.00;;;;350211;27;91547;-93
2023/03/15 00:47:33;;;;;;;;;;;8.40;99.90;9.00;99638.00;;;;349347;27;82512;-93
2023/03/15 00:47:51;;;;;;;;;;;8.50;99.90;8.90;99643.00;;;;348901;27;90451;-92
2023/03/15 00:48:03;;;;;;;;;;;8.40;99.90;9.00;99640.00;;;;350651;27;83353;-92
2023/03/15 00:48:15;;;;;;;;;;;8.40;99.90;9.00;99643.00;;;;347562;28;91720;-92
2023/03/15 00:48:35;;;;;;;;;;;8.50;99.90;8.90;99637.00;;;;349320;27;82471;-93
2023/03/15 00:48:48;;;;;;;;;;;8.50;99.90;8.90;99643.00;;;;346001;28;90767;-92
2023/03/15 00:49:00;;;;;;;;;;;8.50;99.90;8.90;99643.00;;;;346763;28;83142;-91
2023/03/15 00:49:12;;;;;;;;;;;8.50;99.90;8.90;99631.00;;;;347415;28;90746;-93
2023/03/15 00:49:26;;;;;;;;;;;8.50;99.90;8.90;99640.00;;;;348089;28;82565;-93
2023/03/15 00:49:38;;;;;;;;;;;8.50;99.90;8.90;99641.00;;;;350157;27;89567;-93
2023/03/15 00:49:50;;;;;;;;;;;8.50;99.90;9.00;99643.00;;;;346770;28;82537;-93
2023/03/15 00:50:03;;;;;;;;;;;8.50;99.90;8.80;99642.00;;;;347614;28;89781;-92
2023/03/15 00:50:14;;;;;;;;;;;8.50;99.90;8.80;99642.00;;;;348018;28;82362;-91
2023/03/15 00:50:27;;;;;;;;;;;8.50;99.90;8.80;99639.00;;;;346361;28;88899;-92
2023/03/15 00:50:39;;;;;;;;;;;8.50;99.90;8.80;99631.00;;;;349672;27;82495;-92
2023/03/15 00:50:50;;;;;;;;;;;8.40;99.90;8.80;99645.00;;;;346140;28;91193;-92
2023/03/15 00:51:05;;;;;;;;;;;8.50;99.90;8.70;99642.00;;;;349193;27;83502;-93
2023/03/15 00:51:21;;;;;;;;;;;8.40;99.90;8.70;99645.00;;;;347295;28;92231;-91
2023/03/15 00:51:33;;;;;;;;;;;8.40;99.90;8.70;99631.00;;;;347902;28;83516;-92
2023/03/15 00:51:46;;;;;;;;;;;8.40;99.90;8.70;99642.00;;;;349118;27;91095;-92
2023/03/15 00:51:58;;;;;;;;;;;8.40;99.90;8.80;99637.00;;;;348089;28;82275;-92
2023/03/15 00:52:11;;;;;;;;;;;8.40;99.90;8.80;99640.00;;;;348931;27;90569;-91
2023/03/15 00:52:23;;;;;;;;;;;8.40;99.90;8.80;99633.00;;;;348036;28;83329;-91
2023/03/15 00:52:35;;;;;;;;;;;8.40;99.90;8.70;99644.00;;;;349010;27;90240;-92
2023/03/15 00:52:47;;;;;;;;;;;8.40;99.90;8.60;99643.00;;;;347858;28;83401;-90
2023/03/15 00:52:59;;;;;;;;;;;8.40;99.90;8.70;99645.00;;;;348920;27;91001;-92
2023/03/15 00:53:11;;;;;;;;;;;8.40;99.90;8.70;99648.00;;;;349373;27;82475;-92
2023/03/15 00:53:23;;;;;;;;;;;8.40;99.90;8.70;99645.00;;;;348763;27;92644;-90
2023/03/15 00:53:35;;;;;;;;;;;8.30;99.90;8.70;99647.00;;;;347744;28;83574;-92
2023/03/15 00:53:47;;;;;;;;;;;8.30;99.90;8.80;99646.00;;;;351794;27;89559;-91
2023/03/15 00:53:59;;;;;;;;;;;8.30;99.90;8.80;99647.00;;;;349111;27;83491;-92
2023/03/15 00:54:14;;;;;;;;;;;8.40;99.90;8.80;99647.00;;;;347225;28;90289;-91
2023/03/15 00:54:26;;;;;;;;;;;8.30;99.90;8.90;99645.00;;;;347814;28;83391;-90
2023/03/15 00:54:38;;;;;;;;;;;8.40;99.90;8.80;99652.00;;;;350079;27;91720;-92
2023/03/15 00:54:52;;;;;;;;;;;8.30;99.90;8.80;99638.00;;;;349050;27;83397;-92
2023/03/15 00:55:04;;;;;;;;;;;8.40;99.90;8.80;99650.00;;;;347231;28;90802;-92
2023/03/15 00:55:17;;;;;;;;;;;8.40;99.90;8.70;99650.00;;;;347885;28;83344;-91
2023/03/15 00:55:29;;;;;;;;;;;8.40;99.90;8.80;99649.00;;;;347478;28;92898;-90
2023/03/15 00:55:49;;;;;;;;;;;8.40;99.90;8.80;99649.00;;;;346404;28;82235;-91
2023/03/15 00:56:05;;;;;;;;;;;8.40;99.90;8.70;99648.00;;;;348673;27;90236;-92
2023/03/15 00:56:22;;;;;;;;;;;8.30;99.90;8.80;99648.00;;;;347961;28;82490;-92
2023/03/15 00:56:48;;;;;;;;;;;8.40;99.90;8.90;99647.00;;;;346717;28;89314;-92
2023/03/15 00:57:01;;;;;;;;;;;8.40;99.90;8.80;99647.00;;;;346477;28;83332;-91
2023/03/15 00:57:13;;;;;;;;;;;8.40;99.90;8.80;99653.00;;;;347366;28;91021;-92
2023/03/15 00:57:25;;;;;;;;;;;8.40;99.90;8.90;99647.00;;;;346368;28;82554;-92
2023/03/15 00:57:39;;;;;;;;;;;8.40;99.90;8.90;99651.00;;;;347404;28;89853;-91
2023/03/15 00:57:51;;;;;;;;;;;8.40;99.90;8.90;99656.00;;;;347827;28;83460;-92
2023/03/15 00:58:03;;;;;;;;;;;8.40;99.90;8.80;99649.00;;;;347264;28;92605;-90
2023/03/15 00:58:15;;;;;;;;;;;8.40;99.90;8.80;99638.00;;;;346271;28;82516;-91
2023/03/15 00:58:27;;;;;;;;;;;8.40;99.90;8.90;99647.00;;;;345986;28;90867;-91
2023/03/15 00:58:39;;;;;;;;;;;8.40;99.90;8.90;99647.00;;;;347588;28;82439;-92
2023/03/15 00:58:54;;;;;;;;;;;8.40;99.90;8.80;99654.00;;;;348511;27;90256;-92
2023/03/15 00:59:06;;;;;;;;;;;8.40;99.90;8.90;99646.00;;;;347664;28;82488;-92
2023/03/15 00:59:18;;;;;;;;;;;8.40;99.90;8.80;99653.00;;;;345911;28;91907;-92
2023/03/15 00:59:34;;;;;;;;;;;8.40;99.90;8.90;99643.00;;;;349181;27;83500;-91
2023/03/15 00:59:46;;;;;;;;;;;8.40;99.90;8.90;99661.00;;;;348530;27;90566;-91
2023/03/15 00:59:57;;;;;;;;;;;8.40;99.90;8.80;99655.00;;;;348946;27;82469;-91
2023/03/15 01:00:12;;;;;;;;;;;8.40;99.90;8.80;99652.00;;;;348612;27;91544;-91
2023/03/15 01:00:24;;;;;;;;;;;8.40;99.90;8.70;99659.00;;;;349013;27;82317;-91
2023/03/15 01:00:37;;;;;;;;;;;8.40;99.90;8.60;99657.00;;;;348644;27;90428;-92
2023/03/15 01:00:50;;;;;;;;;;;8.40;99.90;8.70;99658.00;;;;349011;27;82526;-91
2023/03/15 01:01:12;;;;;;;;;;;8.30;99.90;8.70;99654.00;;;;348929;27;91471;-92
2023/03/15 01:01:26;;;;;;;;;;;8.40;99.90;8.80;99650.00;;;;347536;28;83459;-91
2023/03/15 01:01:43;;;;;;;;;;;8.30;99.90;8.80;99660.00;;;;350232;27;89209;-91
2023/03/15 01:01:55;;;;;;;;;;;8.40;99.90;8.80;99659.00;;;;349405;27;82537;-90
2023/03/15 01:02:07;;;;;;;;;;;8.30;99.90;8.80;99655.00;;;;350138;27;90242;-91
2023/03/15 01:02:21;;;;;;;;;;;8.30;99.90;8.80;99651.00;;;;347630;28;83410;-92
2023/03/15 01:02:33;;;;;;;;;;;8.30;99.90;8.90;99654.00;;;;347077;28;92512;-92
2023/03/15 01:02:45;;;;;;;;;;;8.30;99.90;8.90;99650.00;;;;349212;27;82420;-92
2023/03/15 01:02:58;;;;;;;;;;;8.40;99.90;8.90;99653.00;;;;348680;27;90834;-92
2023/03/15 01:03:10;;;;;;;;;;;8.40;99.90;8.90;99657.00;;;;350488;27;83445;-92
2023/03/15 01:03:21;;;;;;;;;;;8.40;99.90;8.90;99642.00;;;;347321;28;91559;-93
2023/03/15 01:03:33;;;;;;;;;;;8.40;99.90;8.90;99651.00;;;;346335;28;82529;-93
2023/03/15 01:03:47;;;;;;;;;;;8.40;99.90;8.90;99644.00;;;;348997;27;90455;-92
2023/03/15 01:04:00;;;;;;;;;;;8.40;99.90;8.80;99660.00;;;;349332;27;83466;-92
2023/03/15 01:04:12;;;;;;;;;;;8.40;99.90;8.80;99648.00;;;;347336;28;91588;-92